createdAt,value
2017-02-01T00:00:21.339Z,95.45
2017-02-01T00:01:21.334Z,95.36
2017-02-01T00:02:21.312Z,95.45
2017-02-01T00:03:21.296Z,95.64
2017-02-01T00:04:21.288Z,95.26
2017-02-01T00:05:21.272Z,95.5
2017-02-01T00:06:21.260Z,95.41
2017-02-01T00:07:21.244Z,94.74
2017-02-01T00:08:21.229Z,94.93
2017-02-01T00:09:21.219Z,95.41
2017-02-01T00:10:21.206Z,95.22
2017-02-01T00:11:21.189Z,95.5
2017-02-01T00:12:21.179Z,95.12
2017-02-01T00:13:21.163Z,94.84
2017-02-01T00:14:21.150Z,94.56
2017-02-01T00:15:21.136Z,94.65
2017-02-01T00:16:21.122Z,95.03
2017-02-01T00:17:21.110Z,95.69
2017-02-01T00:18:21.095Z,94.84
2017-02-01T00:19:21.080Z,95.12
2017-02-01T00:20:20.693Z,94.74
2017-02-01T00:21:21.053Z,93.89
2017-02-01T00:22:21.040Z,93.23
2017-02-01T00:23:21.029Z,93.13
2017-02-01T00:24:21.015Z,93.32
2017-02-01T00:25:21.004Z,94.23
2017-02-01T00:26:20.990Z,94.32
2017-02-01T00:27:20.978Z,94.08
2017-02-01T00:28:20.963Z,94.04
2017-02-01T00:29:20.947Z,94.51
2017-02-01T00:30:20.933Z,95.03
2017-02-01T00:31:20.947Z,95.07
2017-02-01T00:32:20.906Z,94.93
2017-02-01T00:33:20.894Z,94.74
2017-02-01T00:34:20.880Z,94.46
2017-02-01T00:35:20.865Z,94.04
2017-02-01T00:36:20.855Z,94.23
2017-02-01T00:37:20.840Z,93.84
2017-02-01T00:38:20.824Z,94.42
2017-02-01T00:39:20.811Z,94.89
2017-02-01T00:40:20.799Z,94.7
2017-02-01T00:41:20.785Z,95.17
2017-02-01T00:42:20.772Z,95.17
2017-02-01T00:43:20.760Z,94.89
2017-02-01T00:44:20.745Z,94.89
2017-02-01T00:45:20.730Z,94.89
2017-02-01T00:46:20.719Z,94.42
2017-02-01T00:47:20.706Z,93.94
2017-02-01T00:48:20.302Z,94.23
2017-02-01T00:49:20.675Z,94.7
2017-02-01T00:50:20.277Z,94.89
2017-02-01T00:51:20.660Z,95.07
2017-02-01T00:52:20.635Z,95.07
2017-02-01T00:53:20.623Z,95.64
2017-02-01T00:54:20.608Z,95.64
2017-02-01T00:55:20.595Z,96.21
2017-02-01T00:56:20.581Z,96.21
2017-02-01T00:57:20.566Z,95.93
2017-02-01T00:58:20.557Z,96.4
2017-02-01T00:59:20.539Z,96.31
2017-02-01T01:00:20.140Z,96.31
2017-02-01T01:01:20.510Z,95.17
2017-02-01T01:02:20.497Z,95.64
2017-02-01T01:03:20.483Z,96.07
2017-02-01T01:04:20.478Z,96.4
2017-02-01T01:05:20.455Z,96.64
2017-02-01T01:06:20.442Z,97.35
2017-02-01T01:07:20.427Z,97.44
2017-02-01T01:08:20.414Z,97.73
2017-02-01T01:09:20.401Z,98.11
2017-02-01T01:10:20.387Z,98.77
2017-02-01T01:11:20.374Z,98.77
2017-02-01T01:12:20.357Z,98.77
2017-02-01T01:13:20.344Z,97.73
2017-02-01T01:14:20.332Z,97.73
2017-02-01T01:15:20.319Z,96.59
2017-02-01T01:16:20.303Z,96.59
2017-02-01T01:17:20.290Z,96.88
2017-02-01T01:18:20.277Z,96.78
2017-02-01T01:19:20.260Z,96.69
2017-02-01T01:20:20.246Z,97.06
2017-02-01T01:21:20.236Z,97.16
2017-02-01T01:22:20.223Z,96.59
2017-02-01T01:23:20.205Z,97.06
2017-02-01T01:24:20.193Z,97.54
2017-02-01T01:25:20.177Z,97.82
2017-02-01T01:26:20.174Z,97.82
2017-02-01T01:27:20.176Z,97.63
2017-02-01T01:28:20.137Z,98.77
2017-02-01T01:29:19.735Z,98.49
2017-02-01T01:30:20.107Z,98.49
2017-02-01T01:31:20.094Z,98.3
2017-02-01T01:32:19.691Z,97.92
2017-02-01T01:33:20.065Z,97.63
2017-02-01T01:34:20.053Z,97.06
2017-02-01T01:35:20.035Z,96.78
2017-02-01T01:36:20.022Z,97.44
2017-02-01T01:37:20.009Z,97.35
2017-02-01T01:38:19.994Z,97.25
2017-02-01T01:39:19.979Z,97.44
2017-02-01T01:40:19.968Z,96.78
2017-02-01T01:41:19.951Z,97.16
2017-02-01T01:42:19.938Z,97.16
2017-02-01T01:43:19.925Z,96.78
2017-02-01T01:44:19.909Z,96.88
2017-02-01T01:45:19.898Z,96.78
2017-02-01T01:46:19.881Z,96.78
2017-02-01T01:47:19.867Z,96.4
2017-02-01T01:48:19.855Z,96.88
2017-02-01T01:49:19.840Z,96.97
2017-02-01T01:50:19.830Z,96.21
2017-02-01T01:51:19.813Z,95.74
2017-02-01T01:52:19.801Z,95.07
2017-02-01T01:53:19.784Z,95.26
2017-02-01T01:54:19.775Z,95.07
2017-02-01T01:55:19.758Z,94.89
2017-02-01T01:56:19.744Z,94.79
2017-02-01T01:57:19.730Z,95.26
2017-02-01T01:58:19.716Z,95.07
2017-02-01T01:59:19.318Z,94.89
2017-02-01T02:00:19.689Z,94.6
2017-02-01T02:01:19.675Z,94.32
2017-02-01T02:02:19.275Z,94.79
2017-02-01T02:03:19.648Z,94.7
2017-02-01T02:04:19.632Z,94.84
2017-02-01T02:05:19.618Z,95.59
2017-02-01T02:06:19.608Z,95.21
2017-02-01T02:07:19.592Z,95.4
2017-02-01T02:08:19.604Z,96.26
2017-02-01T02:09:19.565Z,96.4
2017-02-01T02:10:19.548Z,96.4
2017-02-01T02:11:19.535Z,96.69
2017-02-01T02:12:19.521Z,96.5
2017-02-01T02:13:19.121Z,96.88
2017-02-01T02:14:19.490Z,96.88
2017-02-01T02:15:19.483Z,96.02
2017-02-01T02:16:19.465Z,96.21
2017-02-01T02:17:19.450Z,95.45
2017-02-01T02:18:19.437Z,95.74
2017-02-01T02:19:19.037Z,94.32
2017-02-01T02:20:19.409Z,93.84
2017-02-01T02:21:19.394Z,94.74
2017-02-01T02:22:19.381Z,94.98
2017-02-01T02:23:19.367Z,94.89
2017-02-01T02:24:18.966Z,94.27
2017-02-01T02:25:18.956Z,94.08
2017-02-01T02:26:19.324Z,95.03
2017-02-01T02:27:19.310Z,94.74
2017-02-01T02:28:19.296Z,94.74
2017-02-01T02:29:19.284Z,94.93
2017-02-01T02:30:19.270Z,94.84
2017-02-01T02:31:19.254Z,95.12
2017-02-01T02:32:19.246Z,94.93
2017-02-01T02:33:19.226Z,95.31
2017-02-01T02:34:19.215Z,95.03
2017-02-01T02:35:19.226Z,95.5
2017-02-01T02:36:19.187Z,94.93
2017-02-01T02:37:19.170Z,95.31
2017-02-01T02:38:19.156Z,95.59
2017-02-01T02:39:18.761Z,95.78
2017-02-01T02:40:19.129Z,95.83
2017-02-01T02:41:19.117Z,95.64
2017-02-01T02:42:18.713Z,95.45
2017-02-01T02:43:19.086Z,96.12
2017-02-01T02:44:19.072Z,95.26
2017-02-01T02:45:19.058Z,95.45
2017-02-01T02:46:19.046Z,95.07
2017-02-01T02:47:19.057Z,94.79
2017-02-01T02:48:19.016Z,94.89
2017-02-01T02:49:19.004Z,95.36
2017-02-01T02:50:18.989Z,94.98
2017-02-01T02:51:18.974Z,95.07
2017-02-01T02:52:18.960Z,94.98
2017-02-01T02:53:18.948Z,95.07
2017-02-01T02:54:18.933Z,94.13
2017-02-01T02:55:18.918Z,94.32
2017-02-01T02:56:18.905Z,93.99
2017-02-01T02:57:18.894Z,94.89
2017-02-01T02:58:18.879Z,95.03
2017-02-01T02:59:18.866Z,94.04
2017-02-01T03:00:18.854Z,94.18
2017-02-01T03:01:18.837Z,94.27
2017-02-01T03:02:18.821Z,95.12
2017-02-01T03:03:18.809Z,94.93
2017-02-01T03:04:18.793Z,94.84
2017-02-01T03:05:18.779Z,95.03
2017-02-01T03:06:18.771Z,94.74
2017-02-01T03:07:18.780Z,94.84
2017-02-01T03:08:18.745Z,95.36
2017-02-01T03:09:18.725Z,95.55
2017-02-01T03:10:18.712Z,95.31
2017-02-01T03:11:18.697Z,94.89
2017-02-01T03:12:18.690Z,94.13
2017-02-01T03:13:18.670Z,93.84
2017-02-01T03:14:18.654Z,93.61
2017-02-01T03:15:18.644Z,93.61
2017-02-01T03:16:18.630Z,94.18
2017-02-01T03:17:18.612Z,94.18
2017-02-01T03:18:18.603Z,93.7
2017-02-01T03:19:18.585Z,93.99
2017-02-01T03:20:18.570Z,94.18
2017-02-01T03:21:18.556Z,94.08
2017-02-01T03:22:18.543Z,94.08
2017-02-01T03:23:18.530Z,94.18
2017-02-01T03:24:18.514Z,94.37
2017-02-01T03:25:18.503Z,93.99
2017-02-01T03:26:18.485Z,94.27
2017-02-01T03:27:18.472Z,93.99
2017-02-01T03:28:18.460Z,94.18
2017-02-01T03:29:18.444Z,94.56
2017-02-01T03:30:18.432Z,94.84
2017-02-01T03:31:18.416Z,94.56
2017-02-01T03:32:18.401Z,94.18
2017-02-01T03:33:18.388Z,94.74
2017-02-01T03:34:18.372Z,94.18
2017-02-01T03:35:18.359Z,94.27
2017-02-01T03:36:18.345Z,93.99
2017-02-01T03:37:18.331Z,94.27
2017-02-01T03:38:18.317Z,94.84
2017-02-01T03:39:18.302Z,94.84
2017-02-01T03:40:18.293Z,94.93
2017-02-01T03:41:18.274Z,94.93
2017-02-01T03:42:18.263Z,94.27
2017-02-01T03:43:18.247Z,93.99
2017-02-01T03:44:18.231Z,93.99
2017-02-01T03:45:18.219Z,94.93
2017-02-01T03:46:18.205Z,94.84
2017-02-01T03:47:18.194Z,94.84
2017-02-01T03:48:18.176Z,94.08
2017-02-01T03:49:18.160Z,94.37
2017-02-01T03:50:18.146Z,93.99
2017-02-01T03:51:18.134Z,93.99
2017-02-01T03:52:18.119Z,93.89
2017-02-01T03:53:18.103Z,94.46
2017-02-01T03:54:18.090Z,93.8
2017-02-01T03:55:18.077Z,93.99
2017-02-01T03:56:18.062Z,93.8
2017-02-01T03:57:18.048Z,93.99
2017-02-01T03:58:18.036Z,93.8
2017-02-01T03:59:18.019Z,94.56
2017-02-01T04:00:18.006Z,93.8
2017-02-01T04:01:17.991Z,93.89
2017-02-01T04:02:17.977Z,94.18
2017-02-01T04:03:17.964Z,94.08
2017-02-01T04:04:17.953Z,94.18
2017-02-01T04:05:17.935Z,93.99
2017-02-01T04:06:17.922Z,94.08
2017-02-01T04:07:17.907Z,94.08
2017-02-01T04:08:17.892Z,94.84
2017-02-01T04:09:17.882Z,95.21
2017-02-01T04:10:17.865Z,94.65
2017-02-01T04:11:17.463Z,95.03
2017-02-01T04:12:17.452Z,94.74
2017-02-01T04:13:17.822Z,94.18
2017-02-01T04:14:17.807Z,93.99
2017-02-01T04:15:17.790Z,93.99
2017-02-01T04:16:17.782Z,94.27
2017-02-01T04:17:17.763Z,93.8
2017-02-01T04:18:17.749Z,94.46
2017-02-01T04:19:17.737Z,93.8
2017-02-01T04:20:17.725Z,93.32
2017-02-01T04:21:17.706Z,93.42
2017-02-01T04:22:17.693Z,93.8
2017-02-01T04:23:17.679Z,94.27
2017-02-01T04:24:17.664Z,94.74
2017-02-01T04:25:17.652Z,94.65
2017-02-01T04:26:17.634Z,95.12
2017-02-01T04:27:17.621Z,94.93
2017-02-01T04:28:17.608Z,95.21
2017-02-01T04:29:17.604Z,95.12
2017-02-01T04:30:17.196Z,94.56
2017-02-01T04:31:17.566Z,95.12
2017-02-01T04:32:17.552Z,94.37
2017-02-01T04:33:17.536Z,94.74
2017-02-01T04:34:17.524Z,94.74
2017-02-01T04:35:17.129Z,94.56
2017-02-01T04:36:17.496Z,95.03
2017-02-01T04:37:17.479Z,94.65
2017-02-01T04:38:17.468Z,94.56
2017-02-01T04:39:17.452Z,94.84
2017-02-01T04:40:17.437Z,95.03
2017-02-01T04:41:17.430Z,94.56
2017-02-01T04:42:17.408Z,95.17
2017-02-01T04:43:17.397Z,94.6
2017-02-01T04:44:17.381Z,94.7
2017-02-01T04:45:17.366Z,94.32
2017-02-01T04:46:17.353Z,93.99
2017-02-01T04:47:17.339Z,94.37
2017-02-01T04:48:17.322Z,94.32
2017-02-01T04:49:17.310Z,93.94
2017-02-01T04:50:17.296Z,94.42
2017-02-01T04:51:17.280Z,94.18
2017-02-01T04:52:17.273Z,94.32
2017-02-01T04:53:17.254Z,94.89
2017-02-01T04:54:17.241Z,94.89
2017-02-01T04:55:17.224Z,94.6
2017-02-01T04:56:17.211Z,94.79
2017-02-01T04:57:17.199Z,94.98
2017-02-01T04:58:17.183Z,94.32
2017-02-01T04:59:17.167Z,94.79
2017-02-01T05:00:17.157Z,94.13
2017-02-01T05:01:17.140Z,94.32
2017-02-01T05:02:17.123Z,94.42
2017-02-01T05:03:17.110Z,94.51
2017-02-01T05:04:17.097Z,93.94
2017-02-01T05:05:17.082Z,93.56
2017-02-01T05:06:17.068Z,93.56
2017-02-01T05:07:17.053Z,93.08
2017-02-01T05:08:17.039Z,92.61
2017-02-01T05:09:17.031Z,92.61
2017-02-01T05:10:17.012Z,92.76
2017-02-01T05:11:16.997Z,92.66
2017-02-01T05:12:16.984Z,93.23
2017-02-01T05:13:16.968Z,92.94
2017-02-01T05:14:16.955Z,93.04
2017-02-01T05:15:16.940Z,93.32
2017-02-01T05:16:16.927Z,93.23
2017-02-01T05:17:16.910Z,93.23
2017-02-01T05:18:16.896Z,92.66
2017-02-01T05:19:16.882Z,92.76
2017-02-01T05:20:16.868Z,93.13
2017-02-01T05:21:16.852Z,92.85
2017-02-01T05:22:16.847Z,92.76
2017-02-01T05:23:16.824Z,93.04
2017-02-01T05:24:16.424Z,93.61
2017-02-01T05:25:16.793Z,93.89
2017-02-01T05:26:16.780Z,94.56
2017-02-01T05:27:16.765Z,94.18
2017-02-01T05:28:16.752Z,93.61
2017-02-01T05:29:16.737Z,93.8
2017-02-01T05:30:16.723Z,93.8
2017-02-01T05:31:16.709Z,93.89
2017-02-01T05:32:16.693Z,93.51
2017-02-01T05:33:16.683Z,93.61
2017-02-01T05:34:16.664Z,93.04
2017-02-01T05:35:16.650Z,93.13
2017-02-01T05:36:16.635Z,93.32
2017-02-01T05:37:16.621Z,93.61
2017-02-01T05:38:16.607Z,93.51
2017-02-01T05:39:16.593Z,93.32
2017-02-01T05:40:16.578Z,93.51
2017-02-01T05:41:16.568Z,93.32
2017-02-01T05:42:16.548Z,93.61
2017-02-01T05:43:16.531Z,93.23
2017-02-01T05:44:16.519Z,93.13
2017-02-01T05:45:16.508Z,93.42
2017-02-01T05:46:16.489Z,93.61
2017-02-01T05:47:16.474Z,93.89
2017-02-01T05:48:16.460Z,93.8
2017-02-01T05:49:16.447Z,93.8
2017-02-01T05:50:16.451Z,94.08
2017-02-01T05:51:16.419Z,93.8
2017-02-01T05:52:16.405Z,93.7
2017-02-01T05:53:15.999Z,94.46
2017-02-01T05:54:16.401Z,93.8
2017-02-01T05:55:16.358Z,93.99
2017-02-01T05:56:16.341Z,94.46
2017-02-01T05:57:16.328Z,93.99
2017-02-01T05:58:16.313Z,93.89
2017-02-01T05:59:16.300Z,93.8
2017-02-01T06:00:16.286Z,94.56
2017-02-01T06:01:16.278Z,94.18
2017-02-01T06:02:16.255Z,94.56
2017-02-01T06:03:16.244Z,93.8
2017-02-01T06:04:16.227Z,94.08
2017-02-01T06:05:16.211Z,93.89
2017-02-01T06:06:16.198Z,93.8
2017-02-01T06:07:16.196Z,93.89
2017-02-01T06:08:16.169Z,94.46
2017-02-01T06:09:16.156Z,93.99
2017-02-01T06:10:16.140Z,94.18
2017-02-01T06:11:16.127Z,94.37
2017-02-01T06:12:16.112Z,94.46
2017-02-01T06:13:16.095Z,94.18
2017-02-01T06:14:16.083Z,93.99
2017-02-01T06:15:16.066Z,93.8
2017-02-01T06:16:16.053Z,93.89
2017-02-01T06:17:16.036Z,94.56
2017-02-01T06:18:16.024Z,94.18
2017-02-01T06:19:16.009Z,94.08
2017-02-01T06:20:15.993Z,94.08
2017-02-01T06:21:15.979Z,94.18
2017-02-01T06:22:15.969Z,94.18
2017-02-01T06:23:15.952Z,93.89
2017-02-01T06:24:15.936Z,93.8
2017-02-01T06:25:15.921Z,93.89
2017-02-01T06:26:15.905Z,94.37
2017-02-01T06:27:15.891Z,93.99
2017-02-01T06:28:15.878Z,94.37
2017-02-01T06:29:15.868Z,94.46
2017-02-01T06:30:15.461Z,94.27
2017-02-01T06:31:15.833Z,93.8
2017-02-01T06:32:15.819Z,93.8
2017-02-01T06:33:15.419Z,93.13
2017-02-01T06:34:15.789Z,93.7
2017-02-01T06:35:15.773Z,93.8
2017-02-01T06:36:15.758Z,93.8
2017-02-01T06:37:15.746Z,93.8
2017-02-01T06:38:15.730Z,93.23
2017-02-01T06:39:15.714Z,94.37
2017-02-01T06:40:15.702Z,94.27
2017-02-01T06:41:15.688Z,94.27
2017-02-01T06:42:15.677Z,93.89
2017-02-01T06:43:15.273Z,93.89
2017-02-01T06:44:15.645Z,93.7
2017-02-01T06:45:15.628Z,93.89
2017-02-01T06:46:15.615Z,93.89
2017-02-01T06:47:15.601Z,93.61
2017-02-01T06:48:15.585Z,93.99
2017-02-01T06:49:15.572Z,94.65
2017-02-01T06:50:15.558Z,93.89
2017-02-01T06:51:15.542Z,93.7
2017-02-01T06:52:15.527Z,93.89
2017-02-01T06:53:15.521Z,93.32
2017-02-01T06:54:15.497Z,92.94
2017-02-01T06:55:15.097Z,93.13
2017-02-01T06:56:15.469Z,93.04
2017-02-01T06:57:15.455Z,93.51
2017-02-01T06:58:15.441Z,93.61
2017-02-01T06:59:15.424Z,93.32
2017-02-01T07:00:15.415Z,93.42
2017-02-01T07:01:15.394Z,93.89
2017-02-01T07:02:15.384Z,94.08
2017-02-01T07:03:14.984Z,93.8
2017-02-01T07:04:15.353Z,94.08
2017-02-01T07:05:15.339Z,93.8
2017-02-01T07:06:15.324Z,93.42
2017-02-01T07:07:15.311Z,93.23
2017-02-01T07:08:15.294Z,92.85
2017-02-01T07:09:15.280Z,93.13
2017-02-01T07:10:15.268Z,93.04
2017-02-01T07:11:15.252Z,93.04
2017-02-01T07:12:15.240Z,93.13
2017-02-01T07:13:15.242Z,93.04
2017-02-01T07:14:15.207Z,93.42
2017-02-01T07:15:15.194Z,93.51
2017-02-01T07:16:15.187Z,93.32
2017-02-01T07:17:15.167Z,93.61
2017-02-01T07:18:15.154Z,93.32
2017-02-01T07:19:15.135Z,93.42
2017-02-01T07:20:15.123Z,93.89
2017-02-01T07:21:15.130Z,93.51
2017-02-01T07:22:15.099Z,93.42
2017-02-01T07:23:15.081Z,93.8
2017-02-01T07:24:15.068Z,93.61
2017-02-01T07:25:15.056Z,93.51
2017-02-01T07:26:15.036Z,93.51
2017-02-01T07:27:15.023Z,93.56
2017-02-01T07:28:15.009Z,93.46
2017-02-01T07:29:14.994Z,93.32
2017-02-01T07:30:14.979Z,92.94
2017-02-01T07:31:14.967Z,92.99
2017-02-01T07:32:14.951Z,92.71
2017-02-01T07:33:14.942Z,92.85
2017-02-01T07:34:14.923Z,92.14
2017-02-01T07:35:14.909Z,92.57
2017-02-01T07:36:14.507Z,92.43
2017-02-01T07:37:14.880Z,93.27
2017-02-01T07:38:14.871Z,93.27
2017-02-01T07:39:14.855Z,93.65
2017-02-01T07:40:14.838Z,93.56
2017-02-01T07:41:14.827Z,93.46
2017-02-01T07:42:14.809Z,93.27
2017-02-01T07:43:14.793Z,92.99
2017-02-01T07:44:14.783Z,93.18
2017-02-01T07:45:14.767Z,92.9
2017-02-01T07:46:14.788Z,92.61
2017-02-01T07:47:14.739Z,92.24
2017-02-01T07:48:14.728Z,92.24
2017-02-01T07:49:14.711Z,92.43
2017-02-01T07:50:14.698Z,92.33
2017-02-01T07:51:14.685Z,92.71
2017-02-01T07:52:14.284Z,92.33
2017-02-01T07:53:14.658Z,92.33
2017-02-01T07:54:14.642Z,92.8
2017-02-01T07:55:14.630Z,92.61
2017-02-01T07:56:14.616Z,92.61
2017-02-01T07:57:14.601Z,92.71
2017-02-01T07:58:14.588Z,92.66
2017-02-01T07:59:14.577Z,92.28
2017-02-01T08:00:14.560Z,92.47
2017-02-01T08:01:14.550Z,91.62
2017-02-01T08:02:14.535Z,91.52
2017-02-01T08:03:14.527Z,91.62
2017-02-01T08:04:14.505Z,91.05
2017-02-01T08:05:14.495Z,91.24
2017-02-01T08:06:14.479Z,90.95
2017-02-01T08:07:14.465Z,91.24
2017-02-01T08:08:14.452Z,90.67
2017-02-01T08:09:14.441Z,90.58
2017-02-01T08:10:14.425Z,90.58
2017-02-01T08:11:14.414Z,91.14
2017-02-01T08:12:14.402Z,91.24
2017-02-01T08:13:14.384Z,90.95
2017-02-01T08:14:14.372Z,91.14
2017-02-01T08:15:14.361Z,91.05
2017-02-01T08:16:13.958Z,91.33
2017-02-01T08:17:14.331Z,90.95
2017-02-01T08:18:14.320Z,90.95
2017-02-01T08:19:14.607Z,90.58
2017-02-01T08:20:14.295Z,90.58
2017-02-01T08:21:14.278Z,90.58
2017-02-01T08:22:14.266Z,91.14
2017-02-01T08:23:14.255Z,90.39
2017-02-01T08:24:14.238Z,90.29
2017-02-01T08:25:13.841Z,90.39
2017-02-01T08:26:14.215Z,90.1
2017-02-01T08:27:14.203Z,90.48
2017-02-01T08:28:14.187Z,90.58
2017-02-01T08:29:14.180Z,90.39
2017-02-01T08:30:14.165Z,90.53
2017-02-01T08:31:14.152Z,90.43
2017-02-01T08:32:14.135Z,90.53
2017-02-01T08:33:13.740Z,90.43
2017-02-01T08:34:14.113Z,90.15
2017-02-01T08:35:14.133Z,89.77
2017-02-01T08:36:14.084Z,90.24
2017-02-01T08:37:14.072Z,89.29
2017-02-01T08:38:14.058Z,89.77
2017-02-01T08:39:14.050Z,90.05
2017-02-01T08:40:14.033Z,90.15
2017-02-01T08:41:14.021Z,89.2
2017-02-01T08:42:14.009Z,88.54
2017-02-01T08:43:13.998Z,88.3
2017-02-01T08:44:13.983Z,88.78
2017-02-01T08:45:13.970Z,89.2
2017-02-01T08:46:13.957Z,88.54
2017-02-01T08:47:13.945Z,88.68
2017-02-01T08:48:13.931Z,88.78
2017-02-01T08:49:13.919Z,88.21
2017-02-01T08:50:13.912Z,88.49
2017-02-01T08:51:13.894Z,87.83
2017-02-01T08:52:13.879Z,88.02
2017-02-01T08:53:13.864Z,88.68
2017-02-01T08:54:13.862Z,88.96
2017-02-01T08:55:13.842Z,88.87
2017-02-01T08:56:13.827Z,89.06
2017-02-01T08:57:13.813Z,89.25
2017-02-01T08:58:13.802Z,89.63
2017-02-01T08:59:13.791Z,89.82
2017-02-01T09:00:13.776Z,89.06
2017-02-01T09:01:13.768Z,89.48
2017-02-01T09:02:13.748Z,89.06
2017-02-01T09:03:13.737Z,89.2
2017-02-01T09:04:13.726Z,89.06
2017-02-01T09:05:13.710Z,89.67
2017-02-01T09:06:13.698Z,89.96
2017-02-01T09:07:13.684Z,89.2
2017-02-01T09:08:13.672Z,89.11
2017-02-01T09:09:13.664Z,89.67
2017-02-01T09:10:13.645Z,89.96
2017-02-01T09:11:13.632Z,89.96
2017-02-01T09:12:13.623Z,90.34
2017-02-01T09:13:13.608Z,89.96
2017-02-01T09:14:13.596Z,90.05
2017-02-01T09:15:13.584Z,90.15
2017-02-01T09:16:13.570Z,89.11
2017-02-01T09:17:13.559Z,89.11
2017-02-01T09:18:13.544Z,89.29
2017-02-01T09:19:13.534Z,89.2
2017-02-01T09:20:13.519Z,89.2
2017-02-01T09:21:13.509Z,89.29
2017-02-01T09:22:13.494Z,88.54
2017-02-01T09:23:13.480Z,89.29
2017-02-01T09:24:13.469Z,88.73
2017-02-01T09:25:13.461Z,88.54
2017-02-01T09:26:13.445Z,88.63
2017-02-01T09:27:13.430Z,89.29
2017-02-01T09:28:13.420Z,88.54
2017-02-01T09:29:13.408Z,88.73
2017-02-01T09:30:13.393Z,88.73
2017-02-01T09:31:13.382Z,88.25
2017-02-01T09:32:13.373Z,87.97
2017-02-01T09:33:13.359Z,87.77
2017-02-01T09:34:13.346Z,87.4
2017-02-01T09:35:13.343Z,86.55
2017-02-01T09:36:13.322Z,86.55
2017-02-01T09:37:13.324Z,86.74
2017-02-01T09:38:13.298Z,87.4
2017-02-01T09:39:13.286Z,87.21
2017-02-01T09:40:13.272Z,87.35
2017-02-01T09:41:13.259Z,87.35
2017-02-01T09:42:13.249Z,87.25
2017-02-01T09:43:13.242Z,86.11
2017-02-01T09:44:13.227Z,86.11
2017-02-01T09:45:13.211Z,85.64
2017-02-01T09:46:13.202Z,85.78
2017-02-01T09:47:13.189Z,86.21
2017-02-01T09:48:13.183Z,86.59
2017-02-01T09:49:13.168Z,86.87
2017-02-01T09:50:13.152Z,85.36
2017-02-01T09:51:13.144Z,84.78
2017-02-01T09:52:13.126Z,85.64
2017-02-01T09:53:13.144Z,86.49
2017-02-01T09:54:13.102Z,86.68
2017-02-01T09:55:13.097Z,86.49
2017-02-01T09:56:13.109Z,85.36
2017-02-01T09:57:13.068Z,84.98
2017-02-01T09:58:13.061Z,85.07
2017-02-01T09:59:13.043Z,84.78
2017-02-01T10:00:13.031Z,85.17
2017-02-01T10:01:13.021Z,85.45
2017-02-01T10:02:13.008Z,85.26
2017-02-01T10:03:12.995Z,85.74
2017-02-01T10:04:12.990Z,85.55
2017-02-01T10:05:12.972Z,85.45
2017-02-01T10:06:12.965Z,85.26
2017-02-01T10:07:12.949Z,85.83
2017-02-01T10:08:12.937Z,86.02
2017-02-01T10:09:12.925Z,85.83
2017-02-01T10:10:12.911Z,86.68
2017-02-01T10:11:12.902Z,85.64
2017-02-01T10:12:12.891Z,85.74
2017-02-01T10:13:12.877Z,86.11
2017-02-01T10:14:12.871Z,85.45
2017-02-01T10:15:12.855Z,85.07
2017-02-01T10:16:12.842Z,85.36
2017-02-01T10:17:12.829Z,85.07
2017-02-01T10:18:12.824Z,85.55
2017-02-01T10:19:12.811Z,86.11
2017-02-01T10:20:12.793Z,85.74
2017-02-01T10:21:12.792Z,85.83
2017-02-01T10:22:12.770Z,85.93
2017-02-01T10:23:12.760Z,85.74
2017-02-01T10:24:12.359Z,85.17
2017-02-01T10:25:12.733Z,85.26
2017-02-01T10:26:12.337Z,83.94
2017-02-01T10:27:12.738Z,84.41
2017-02-01T10:28:12.699Z,84.31
2017-02-01T10:29:12.687Z,84.12
2017-02-01T10:30:12.675Z,84.03
2017-02-01T10:31:12.663Z,83.74
2017-02-01T10:32:12.653Z,84.17
2017-02-01T10:33:12.639Z,84.69
2017-02-01T10:34:12.629Z,84.46
2017-02-01T10:35:12.619Z,84.27
2017-02-01T10:36:12.607Z,84.46
2017-02-01T10:37:12.592Z,84.65
2017-02-01T10:38:12.581Z,85.13
2017-02-01T10:39:12.571Z,85.13
2017-02-01T10:40:12.556Z,84.74
2017-02-01T10:41:12.545Z,85.13
2017-02-01T10:42:12.531Z,85.41
2017-02-01T10:43:12.522Z,85.78
2017-02-01T10:44:12.509Z,86.26
2017-02-01T10:45:12.498Z,85.6
2017-02-01T10:46:12.096Z,85.6
2017-02-01T10:47:12.471Z,85.41
2017-02-01T10:48:12.462Z,85.6
2017-02-01T10:49:12.450Z,85.31
2017-02-01T10:50:12.049Z,85.22
2017-02-01T10:51:12.428Z,85.69
2017-02-01T10:52:12.415Z,85.93
2017-02-01T10:53:12.401Z,85.6
2017-02-01T10:54:12.004Z,84.94
2017-02-01T10:55:12.377Z,84.78
2017-02-01T10:56:12.364Z,84.5
2017-02-01T10:57:12.352Z,84.5
2017-02-01T10:58:12.344Z,83.7
2017-02-01T10:59:12.329Z,83.84
2017-02-01T11:00:12.315Z,84.55
2017-02-01T11:01:12.304Z,84.65
2017-02-01T11:02:12.294Z,85.31
2017-02-01T11:03:12.280Z,85.55
2017-02-01T11:04:12.269Z,85.69
2017-02-01T11:05:12.258Z,86.11
2017-02-01T11:06:11.858Z,85.93
2017-02-01T11:07:12.237Z,86.02
2017-02-01T11:08:12.221Z,85.83
2017-02-01T11:09:12.210Z,84.5
2017-02-01T11:10:11.811Z,85.07
2017-02-01T11:11:12.186Z,84.03
2017-02-01T11:12:11.787Z,84.03
2017-02-01T11:13:12.163Z,83.74
2017-02-01T11:14:12.157Z,83.17
2017-02-01T11:15:12.141Z,83.74
2017-02-01T11:16:11.740Z,83.94
2017-02-01T11:17:12.121Z,83.55
2017-02-01T11:18:12.103Z,82.98
2017-02-01T11:19:12.090Z,83.65
2017-02-01T11:20:11.696Z,83.94
2017-02-01T11:21:12.084Z,84.26
2017-02-01T11:22:12.063Z,84.17
2017-02-01T11:23:12.047Z,82.55
2017-02-01T11:24:12.035Z,82.74
2017-02-01T11:25:12.024Z,82.93
2017-02-01T11:26:12.011Z,82.17
2017-02-01T11:27:11.615Z,81.6
2017-02-01T11:28:11.994Z,81.79
2017-02-01T11:29:11.978Z,82.36
2017-02-01T11:30:11.969Z,82.17
2017-02-01T11:31:11.952Z,81.6
2017-02-01T11:32:11.949Z,81.41
2017-02-01T11:33:11.964Z,80.75
2017-02-01T11:34:11.535Z,80.46
2017-02-01T11:35:11.527Z,80.56
2017-02-01T11:36:11.898Z,80.27
2017-02-01T11:37:11.887Z,80.46
2017-02-01T11:38:11.883Z,81.04
2017-02-01T11:39:11.865Z,80.37
2017-02-01T11:40:11.854Z,79.33
2017-02-01T11:41:11.842Z,78.95
2017-02-01T11:42:11.834Z,79.04
2017-02-01T11:43:11.820Z,80.46
2017-02-01T11:44:11.810Z,80.37
2017-02-01T11:45:11.411Z,81.23
2017-02-01T11:46:11.788Z,81.04
2017-02-01T11:47:11.775Z,81.13
2017-02-01T11:48:11.763Z,80.56
2017-02-01T11:49:11.754Z,81.13
2017-02-01T11:50:11.356Z,81.32
2017-02-01T11:51:11.733Z,80.65
2017-02-01T11:52:11.729Z,80.46
2017-02-01T11:53:11.708Z,80.94
2017-02-01T11:54:11.702Z,81.32
2017-02-01T11:55:11.691Z,80.88
2017-02-01T11:56:11.682Z,80.98
2017-02-01T11:57:11.665Z,81.26
2017-02-01T11:58:11.653Z,81.07
2017-02-01T11:59:11.648Z,81.17
2017-02-01T12:00:11.634Z,80.69
2017-02-01T12:01:11.623Z,79.74
2017-02-01T12:02:11.223Z,79.84
2017-02-01T12:03:11.599Z,79.17
2017-02-01T12:04:11.204Z,79.84
2017-02-01T12:05:11.189Z,79.84
2017-02-01T12:06:11.178Z,79.84
2017-02-01T12:07:11.558Z,79.65
2017-02-01T12:08:11.164Z,80.51
2017-02-01T12:09:11.541Z,80.22
2017-02-01T12:10:11.530Z,78.89
2017-02-01T12:11:11.124Z,78.8
2017-02-01T12:12:11.111Z,78.03
2017-02-01T12:13:11.495Z,78.85
2017-02-01T12:14:11.476Z,78.75
2017-02-01T12:15:11.467Z,78.75
2017-02-01T12:16:11.071Z,79.33
2017-02-01T12:17:11.444Z,79.42
2017-02-01T12:18:11.433Z,78.85
2017-02-01T12:19:11.423Z,79.52
2017-02-01T12:20:11.412Z,79.42
2017-02-01T12:21:11.403Z,80.08
2017-02-01T12:22:11.392Z,80.65
2017-02-01T12:23:11.396Z,79.42
2017-02-01T12:24:11.377Z,79.52
2017-02-01T12:25:11.359Z,79.14
2017-02-01T12:26:11.345Z,79.04
2017-02-01T12:27:11.335Z,78.95
2017-02-01T12:28:11.322Z,79.52
2017-02-01T12:29:11.314Z,79.33
2017-02-01T12:30:11.300Z,79.9
2017-02-01T12:31:11.288Z,80.46
2017-02-01T12:32:11.279Z,80.46
2017-02-01T12:33:11.267Z,80.56
2017-02-01T12:34:11.258Z,80.84
2017-02-01T12:35:11.244Z,80.18
2017-02-01T12:36:11.233Z,80.27
2017-02-01T12:37:11.226Z,79.9
2017-02-01T12:38:11.211Z,80.46
2017-02-01T12:39:11.234Z,79.99
2017-02-01T12:40:11.188Z,79.9
2017-02-01T12:41:10.792Z,80.18
2017-02-01T12:42:11.167Z,80.65
2017-02-01T12:43:11.154Z,80.56
2017-02-01T12:44:11.146Z,80.18
2017-02-01T12:45:11.135Z,80.18
2017-02-01T12:46:11.124Z,80.18
2017-02-01T12:47:11.113Z,80.46
2017-02-01T12:48:10.712Z,80.46
2017-02-01T12:49:11.090Z,79.8
2017-02-01T12:50:10.697Z,79.52
2017-02-01T12:51:11.067Z,79.14
2017-02-01T12:52:11.059Z,78.95
2017-02-01T12:53:11.045Z,78.56
2017-02-01T12:54:11.035Z,78.66
2017-02-01T12:55:10.636Z,79.8